Time;durP1;ratioP1;P1;durP2;ratioP2;P2;SDS_P1;SDS_P2;PMS_P1;PMS_P2;Temp;Humidity;BMP_temperature;BMP_pressure;BME280_temperature;BME280_humidity;BME280_pressure;Samples;Min_cycle;Max_cycle;Signal;HPM_P1;HPM_P2
2021/12/22 00:00:19;;;;;;;20.33;11.27;;;;;;;17.58;36.96;101787.50;4882432;29;20134;-76
2021/12/22 00:02:46;;;;;;;27.00;12.13;;;;;;;17.43;37.45;101791.66;4882027;29;20135;-76
2021/12/22 00:05:19;;;;;;;20.00;12.27;;;;;;;17.37;37.01;101793.81;4882020;29;20029;-76
2021/12/22 00:07:45;;;;;;;21.27;11.90;;;;;;;17.65;36.83;101788.59;4881994;29;20069;-76
2021/12/22 00:10:12;;;;;;;19.10;12.52;;;;;;;17.58;37.01;101782.78;4881979;29;20044;-77
2021/12/22 00:12:38;;;;;;;21.15;12.90;;;;;;;17.73;36.79;101759.31;4881828;29;20040;-76
2021/12/22 00:15:05;;;;;;;24.58;14.82;;;;;;;17.59;37.29;101772.53;4881884;29;20033;-76
2021/12/22 00:17:30;;;;;;;19.48;12.40;;;;;;;17.60;37.02;101752.88;4881799;29;20115;-76
2021/12/22 00:19:56;;;;;;;25.35;14.57;;;;;;;17.62;37.04;101744.25;4881770;29;20453;-76
2021/12/22 00:22:22;;;;;;;19.48;13.88;;;;;;;17.58;37.13;101738.56;4881755;29;20029;-76
2021/12/22 00:24:48;;;;;;;25.40;13.85;;;;;;;17.70;36.97;101729.56;4881811;29;20037;-76
2021/12/22 00:27:14;;;;;;;25.00;14.02;;;;;;;17.49;37.04;101732.31;4881404;29;20185;-76
2021/12/22 00:29:41;;;;;;;22.33;13.07;;;;;;;17.39;37.19;101721.66;4879906;29;20151;-76
2021/12/22 00:32:10;;;;;;;24.13;14.27;;;;;;;17.54;37.00;101709.22;4880703;29;20116;-76
2021/12/22 00:34:47;;;;;;;26.27;15.77;;;;;;;17.36;37.46;101698.25;4881683;29;20041;-75
2021/12/22 00:37:15;;;;;;;25.55;14.38;;;;;;;17.31;37.56;101712.28;4881562;29;20029;-75
2021/12/22 00:39:40;;;;;;;26.63;13.43;;;;;;;17.39;37.52;101716.94;4881633;29;20033;-75
2021/12/22 00:42:06;;;;;;;26.20;14.70;;;;;;;17.54;37.02;101720.25;4881351;29;20540;-75
2021/12/22 00:44:32;;;;;;;24.63;14.48;;;;;;;17.47;37.20;101704.22;4881274;29;20112;-75
2021/12/22 00:46:58;;;;;;;27.25;14.05;;;;;;;17.37;37.31;101707.34;4881218;29;20112;-75
2021/12/22 00:49:23;;;;;;;22.33;13.73;;;;;;;17.34;37.27;101716.31;4881237;29;20064;-75
2021/12/22 00:51:49;;;;;;;33.22;15.50;;;;;;;17.34;37.29;101713.56;4881006;29;20052;-76
2021/12/22 00:54:15;;;;;;;22.33;14.93;;;;;;;17.38;37.30;101692.41;4880873;29;20079;-75
2021/12/22 00:56:40;;;;;;;20.60;13.85;;;;;;;17.20;37.30;101691.72;4880479;29;20040;-75
2021/12/22 00:59:06;;;;;;;23.15;14.75;;;;;;;17.31;37.15;101703.19;4881050;29;20033;-76
2021/12/22 01:01:31;;;;;;;28.38;15.82;;;;;;;17.29;37.26;101688.88;4864337;29;20075;-76
2021/12/22 01:03:57;;;;;;;27.45;16.52;;;;;;;17.37;37.20;101682.50;4881313;29;20488;-76
2021/12/22 01:06:23;;;;;;;26.40;17.35;;;;;;;17.22;37.50;101663.75;4880979;29;20069;-76
2021/12/22 01:08:49;;;;;;;22.35;13.80;;;;;;;17.26;37.25;101659.19;4880968;29;20029;-76
2021/12/22 01:11:15;;;;;;;27.73;13.95;;;;;;;17.14;37.44;101654.38;4880893;29;20090;-76
2021/12/22 01:13:41;;;;;;;27.20;16.02;;;;;;;16.98;37.84;101651.41;4880781;29;20025;-76
2021/12/22 01:16:06;;;;;;;24.95;15.05;;;;;;;17.03;37.76;101644.88;4880831;29;20067;-76
2021/12/22 01:18:35;;;;;;;20.10;14.02;;;;;;;16.95;37.65;101649.31;4880709;29;20107;-76
2021/12/22 01:21:24;;;;;;;24.27;15.07;;;;;;;17.00;37.65;101656.59;4880928;29;20033;-76
2021/12/22 01:24:02;;;;;;;27.98;15.50;;;;;;;17.15;37.27;101647.72;4880694;29;20032;-76
2021/12/22 01:26:34;;;;;;;25.85;14.65;;;;;;;17.22;37.27;101638.91;4880638;29;20639;-76
2021/12/22 01:29:00;;;;;;;26.20;15.60;;;;;;;17.35;37.07;101635.06;4880548;29;20109;-76
2021/12/22 01:31:26;;;;;;;30.48;16.27;;;;;;;17.47;37.12;101622.13;4880599;29;20102;-76
2021/12/22 01:33:52;;;;;;;25.60;16.45;;;;;;;17.50;37.18;101620.63;4880329;29;20488;-76
2021/12/22 01:36:17;;;;;;;25.80;16.75;;;;;;;17.42;37.43;101616.81;4880522;29;20060;-76
2021/12/22 01:38:43;;;;;;;26.67;16.52;;;;;;;17.32;37.83;101613.66;4880634;29;20052;-76
2021/12/22 01:41:09;;;;;;;29.20;16.98;;;;;;;17.25;37.98;101613.38;4880154;29;20411;-76
2021/12/22 01:43:35;;;;;;;20.60;16.20;;;;;;;17.10;38.08;101610.09;4880407;29;20100;-76
2021/12/22 01:49:11;;;;;;;27.13;16.17;;;;;;;17.11;37.78;101619.97;4880271;29;20025;-76
2021/12/22 01:51:56;;;;;;;23.13;15.70;;;;;;;16.98;38.01;101614.72;4880014;29;20049;-76
2021/12/22 01:54:31;;;;;;;30.15;16.67;;;;;;;17.07;37.68;101607.97;4880300;29;20044;-76
2021/12/22 01:57:02;;;;;;;24.10;15.57;;;;;;;17.29;37.45;101595.78;4880106;29;20479;-75
2021/12/22 01:59:29;;;;;;;28.55;16.52;;;;;;;17.37;37.53;101605.16;4880064;29;20083;-76
2021/12/22 02:01:55;;;;;;;24.15;15.23;;;;;;;17.32;37.28;101597.88;4880317;29;20082;-76
2021/12/22 02:04:21;;;;;;;27.75;15.75;;;;;;;17.41;37.30;101595.06;4879918;29;20032;-76
2021/12/22 02:06:48;;;;;;;22.98;16.20;;;;;;;17.14;38.13;101593.63;4879843;29;20116;-76
2021/12/22 02:09:25;;;;;;;25.27;16.05;;;;;;;17.17;37.96;101591.03;5141209;24;20004;-76
2021/12/22 02:11:51;;;;;;;28.40;16.38;;;;;;;17.26;37.79;101593.72;4937295;29;20032;-76
2021/12/22 02:14:16;;;;;;;26.38;16.88;;;;;;;17.36;37.63;101586.97;4935466;29;20038;-76
2021/12/22 02:16:42;;;;;;;32.40;18.85;;;;;;;17.17;38.30;101596.53;4952360;29;20027;-76
2021/12/22 02:19:09;;;;;;;26.92;17.52;;;;;;;17.24;38.20;101586.91;4955139;29;20105;-76
2021/12/22 02:21:45;;;;;;;31.70;17.25;;;;;;;17.28;38.28;101593.38;4955331;29;20027;-77
2021/12/22 02:24:11;;;;;;;30.05;17.42;;;;;;;17.43;37.83;101590.78;4954987;29;20031;-77
2021/12/22 02:26:46;;;;;;;28.10;17.95;;;;;;;17.32;38.65;101592.38;4955364;29;20592;-76
2021/12/22 02:29:33;;;;;;;27.98;18.27;;;;;;;17.43;38.17;101578.94;4955329;29;20038;-76
2021/12/22 02:32:07;;;;;;;29.90;17.80;;;;;;;17.38;38.47;101584.66;4955572;29;20477;-76
2021/12/22 02:34:46;;;;;;;30.13;17.33;;;;;;;17.26;38.65;101571.63;4955153;29;20091;-76
2021/12/22 02:37:17;;;;;;;28.92;18.10;;;;;;;17.13;38.89;101580.97;4955121;29;20536;-76
2021/12/22 02:39:56;;;;;;;31.10;17.30;;;;;;;17.29;38.35;101575.66;4955028;29;20106;-76
2021/12/22 02:42:25;;;;;;;28.00;17.23;;;;;;;17.41;37.97;101589.53;4955108;29;20052;-76
2021/12/22 02:44:50;;;;;;;27.60;16.30;;;;;;;17.35;38.17;101586.16;4955226;29;20031;-76
2021/12/22 02:47:18;;;;;;;27.67;16.15;;;;;;;17.22;38.24;101595.50;4954845;29;20363;-76
2021/12/22 02:49:44;;;;;;;21.17;16.05;;;;;;;17.41;38.08;101593.09;4954757;29;20030;-77
2021/12/22 02:52:09;;;;;;;25.77;16.10;;;;;;;17.41;37.79;101590.34;4939491;29;20032;-77
2021/12/22 02:54:42;;;;;;;23.67;14.80;;;;;;;17.35;38.04;101588.91;4935448;29;20507;-77
2021/12/22 02:57:20;;;;;;;30.00;16.98;;;;;;;17.28;38.01;101585.09;4935698;29;20032;-76
2021/12/22 03:00:24;;;;;;;29.25;16.63;;;;;;;17.18;38.18;101572.50;4935564;29;20749;-76
2021/12/22 03:05:06;;;;;;;25.60;16.17;;;;;;;17.31;38.00;101565.09;4935879;29;20024;-76
2021/12/22 03:07:32;;;;;;;29.10;16.25;;;;;;;17.43;37.77;101556.84;4935472;29;20028;-76
2021/12/22 03:10:06;;;;;;;28.02;16.95;;;;;;;17.34;37.83;101556.13;4935173;29;20146;-76
2021/12/22 03:12:35;;;;;;;19.98;15.75;;;;;;;17.36;37.89;101562.09;4935315;29;20397;-77
2021/12/22 03:15:03;;;;;;;29.50;17.02;;;;;;;17.36;37.79;101559.34;4935440;29;20067;-76
2021/12/22 03:17:29;;;;;;;26.33;17.05;;;;;;;17.30;38.04;101549.63;4935366;29;20132;-76
2021/12/22 03:19:55;;;;;;;22.67;15.98;;;;;;;17.10;38.50;101568.66;4935084;29;20031;-77
2021/12/22 03:22:21;;;;;;;24.35;15.23;;;;;;;17.33;37.94;101555.31;4935574;29;20028;-76
2021/12/22 03:24:49;;;;;;;26.83;15.88;;;;;;;17.43;37.78;101551.31;4935329;29;20038;-76
2021/12/22 03:27:15;;;;;;;28.25;16.13;;;;;;;17.23;38.20;101552.13;4935259;29;20028;-77
2021/12/22 03:29:40;;;;;;;26.45;15.93;;;;;;;17.23;38.31;101546.59;4935199;29;20023;-76
2021/12/22 03:32:07;;;;;;;26.13;15.88;;;;;;;17.37;37.93;101544.38;4935439;29;20027;-77
2021/12/22 03:34:33;;;;;;;27.10;17.52;;;;;;;17.23;38.17;101536.41;4935363;29;20038;-76
2021/12/22 03:36:59;;;;;;;28.83;16.85;;;;;;;17.39;38.02;101536.56;4935442;29;20024;-76
2021/12/22 03:39:27;;;;;;;28.60;17.75;;;;;;;17.32;38.06;101526.06;4935449;29;20516;-76
2021/12/22 03:41:52;;;;;;;26.20;18.52;;;;;;;17.32;38.35;101525.28;4935165;29;20055;-76
2021/12/22 03:44:18;;;;;;;25.52;18.58;;;;;;;17.29;38.44;101528.69;4935164;29;20502;-76
2021/12/22 03:46:44;;;;;;;29.08;20.10;;;;;;;17.37;38.30;101520.31;4934965;29;20020;-76
2021/12/22 03:49:12;;;;;;;27.40;17.55;;;;;;;17.29;38.72;101510.16;4935270;29;20032;-76
2021/12/22 03:51:39;;;;;;;29.50;18.50;;;;;;;17.39;38.34;101514.47;4935065;29;20106;-76
2021/12/22 03:54:06;;;;;;;32.10;19.02;;;;;;;17.37;38.56;101502.94;4935047;29;20076;-76
2021/12/22 03:56:33;;;;;;;30.88;19.58;;;;;;;17.40;38.42;101502.28;4934964;29;20024;-76
2021/12/22 03:58:58;;;;;;;29.48;19.27;;;;;;;17.34;38.58;101489.81;4935014;29;20055;-76
2021/12/22 04:01:24;;;;;;;30.13;19.02;;;;;;;17.34;38.78;101496.16;4934935;29;20060;-76
2021/12/22 04:03:53;;;;;;;29.83;18.42;;;;;;;17.46;38.44;101501.72;4934929;29;20023;-76
2021/12/22 04:06:20;;;;;;;33.45;18.77;;;;;;;17.22;38.93;101501.63;4934943;29;20028;-77
2021/12/22 04:08:45;;;;;;;35.35;18.88;;;;;;;17.24;38.78;101509.59;4934110;29;20509;-76
2021/12/22 04:11:11;;;;;;;32.08;16.80;;;;;;;17.20;38.73;101501.16;4933978;29;20048;-76
2021/12/22 04:13:36;;;;;;;27.63;16.33;;;;;;;17.25;38.47;101517.53;4934800;29;20474;-76
2021/12/22 04:16:02;;;;;;;30.20;16.27;;;;;;;17.10;38.43;101521.72;4934874;29;20024;-76
2021/12/22 04:18:28;;;;;;;26.60;16.48;;;;;;;17.06;38.77;101518.00;4934865;29;20030;-76
2021/12/22 04:20:54;;;;;;;31.17;17.42;;;;;;;17.23;38.10;101517.06;4934853;29;20103;-76
2021/12/22 04:23:19;;;;;;;32.10;17.60;;;;;;;17.36;37.96;101507.66;4934903;29;20032;-76
2021/12/22 04:25:46;;;;;;;31.65;15.98;;;;;;;16.97;38.63;101500.72;4934672;29;20052;-76
2021/12/22 04:28:12;;;;;;;30.25;18.23;;;;;;;16.98;38.22;101510.59;4934808;29;20027;-77
2021/12/22 04:30:40;;;;;;;32.67;18.23;;;;;;;17.13;37.74;101506.41;4936286;29;20466;-76
2021/12/22 04:33:06;;;;;;;30.90;19.15;;;;;;;16.98;37.88;101493.25;4938377;29;20032;-76
2021/12/22 04:35:32;;;;;;;30.42;18.25;;;;;;;17.20;37.51;101503.91;4938276;29;20394;-76
2021/12/22 04:37:58;;;;;;;28.23;16.50;;;;;;;17.12;37.65;101496.53;4938399;29;20454;-76
2021/12/22 04:40:24;;;;;;;33.05;18.63;;;;;;;17.03;37.71;101485.56;4938373;29;20027;-76
2021/12/22 04:42:50;;;;;;;34.08;18.02;;;;;;;16.99;37.84;101487.38;4937977;29;20031;-76
2021/12/22 04:45:16;;;;;;;31.42;18.60;;;;;;;17.11;37.78;101484.69;4938226;29;20103;-76
2021/12/22 04:47:43;;;;;;;32.67;19.35;;;;;;;17.16;37.58;101480.91;4937971;29;20450;-77
2021/12/22 04:50:14;;;;;;;30.50;17.48;;;;;;;17.15;37.57;101466.28;4937927;29;20467;-76
2021/12/22 04:52:54;;;;;;;28.27;17.23;;;;;;;17.12;37.88;101466.97;4937769;29;20038;-76
2021/12/22 04:55:19;;;;;;;31.75;19.63;;;;;;;17.25;37.48;101469.78;4937899;29;20363;-77
2021/12/22 04:57:46;;;;;;;34.83;18.45;;;;;;;17.17;37.82;101460.44;4937808;29;20034;-76
2021/12/22 05:00:14;;;;;;;34.38;17.42;;;;;;;17.32;37.62;101456.22;4937754;29;20027;-76
2021/12/22 05:02:40;;;;;;;29.48;17.95;;;;;;;17.31;37.67;101446.31;4937707;29;20035;-76
2021/12/22 05:05:06;;;;;;;36.00;18.83;;;;;;;17.25;37.89;101442.16;4937633;29;20032;-76
2021/12/22 05:07:32;;;;;;;27.98;17.02;;;;;;;17.22;37.87;101448.34;4937578;29;20034;-77
2021/12/22 05:09:57;;;;;;;28.40;18.60;;;;;;;17.26;37.82;101432.72;4937367;29;20043;-76
2021/12/22 05:12:23;;;;;;;27.05;17.88;;;;;;;17.24;38.14;101421.22;4937755;29;20083;-76
2021/12/22 05:14:50;;;;;;;35.60;18.88;;;;;;;17.17;38.31;101425.34;4937230;29;20035;-77
2021/12/22 05:20:07;;;;;;;31.17;18.67;;;;;;;17.10;38.22;101408.50;4909979;29;20043;-76
2021/12/22 05:22:33;;;;;;;31.20;19.02;;;;;;;17.13;38.18;101402.28;4937458;29;20462;-76
2021/12/22 05:24:59;;;;;;;35.58;19.70;;;;;;;17.11;38.28;101403.78;4937279;29;20498;-76
2021/12/22 05:27:26;;;;;;;31.92;19.85;;;;;;;16.99;38.68;101398.22;4937183;29;20028;-76
2021/12/22 05:29:51;;;;;;;34.17;21.05;;;;;;;16.99;38.52;101401.78;4937494;29;20042;-77
2021/12/22 05:32:17;;;;;;;34.05;18.58;;;;;;;17.05;38.23;101392.16;4937264;29;20487;-77
2021/12/22 05:34:43;;;;;;;28.45;18.85;;;;;;;16.92;38.62;101394.06;4937151;29;20681;-76
2021/12/22 05:37:08;;;;;;;27.08;19.13;;;;;;;17.01;38.35;101379.38;4937161;29;20039;-76
2021/12/22 05:39:34;;;;;;;29.30;18.40;;;;;;;16.97;38.27;101381.22;4937038;29;20032;-76
2021/12/22 05:42:01;;;;;;;33.15;17.58;;;;;;;16.96;38.34;101382.34;4936803;29;20509;-76
2021/12/22 05:44:27;;;;;;;33.17;18.88;;;;;;;17.00;38.39;101381.31;4936965;29;20023;-76
2021/12/22 05:46:53;;;;;;;33.65;17.90;;;;;;;16.89;38.53;101374.63;4936859;29;20085;-77
2021/12/22 05:49:19;;;;;;;27.48;17.55;;;;;;;16.85;38.96;101373.69;4937100;29;20031;-76
2021/12/22 05:51:44;;;;;;;36.30;17.40;;;;;;;17.00;38.35;101366.72;4937132;29;20476;-77
2021/12/22 05:54:10;;;;;;;23.15;18.23;;;;;;;16.99;38.54;101379.72;4936743;29;20393;-76
2021/12/22 05:56:36;;;;;;;32.33;17.88;;;;;;;17.11;38.21;101370.66;4937121;29;20024;-77
2021/12/22 05:59:02;;;;;;;36.92;17.98;;;;;;;17.09;38.42;101371.00;4936981;29;20020;-76
2021/12/22 06:01:30;;;;;;;33.83;16.77;;;;;;;17.10;38.34;101369.84;4936726;29;20062;-76
2021/12/22 06:03:55;;;;;;;28.90;15.50;;;;;;;16.86;38.91;101375.31;4936942;29;20027;-76
2021/12/22 06:06:21;;;;;;;35.97;18.08;;;;;;;16.94;38.62;101374.41;4936545;29;20493;-76
2021/12/22 06:08:46;;;;;;;33.17;16.77;;;;;;;17.07;38.30;101365.00;4935891;29;20028;-76
2021/12/22 06:11:12;;;;;;;24.88;16.50;;;;;;;16.98;38.63;101360.72;4936336;29;20150;-76
2021/12/22 06:13:38;;;;;;;32.47;17.23;;;;;;;16.88;38.67;101360.03;4936377;29;20028;-77
2021/12/22 06:16:04;;;;;;;29.08;16.85;;;;;;;16.88;38.76;101367.50;4936385;29;20094;-76
2021/12/22 06:18:29;;;;;;;28.92;15.82;;;;;;;17.01;38.60;101349.03;4936286;29;20031;-77
2021/12/22 06:20:55;;;;;;;31.08;15.75;;;;;;;17.11;38.48;101343.84;4935645;29;20036;-76
2021/12/22 06:23:21;;;;;;;26.35;16.23;;;;;;;17.04;38.67;101360.16;4935433;29;20605;-76
2021/12/22 06:25:46;;;;;;;29.13;16.13;;;;;;;16.98;38.74;101369.81;4936153;29;20023;-76
2021/12/22 06:28:12;;;;;;;31.73;16.88;;;;;;;16.92;38.72;101369.22;4936250;29;20028;-76
2021/12/22 06:30:38;;;;;;;30.63;16.67;;;;;;;17.15;38.34;101360.53;4936220;29;20106;-76
2021/12/22 06:33:03;;;;;;;31.50;16.40;;;;;;;17.14;38.54;101359.72;4936053;29;20474;-76
2021/12/22 06:35:29;;;;;;;27.25;16.30;;;;;;;17.05;38.85;101360.97;4935995;29;20079;-76
2021/12/22 06:37:55;;;;;;;40.35;19.27;;;;;;;17.01;39.00;101336.03;4935983;29;20055;-76
2021/12/22 06:40:21;;;;;;;34.00;16.08;;;;;;;17.04;39.05;101349.13;4935992;29;20091;-77
2021/12/22 06:42:47;;;;;;;27.15;15.63;;;;;;;17.08;38.86;101352.84;4936230;29;20511;-76
2021/12/22 06:45:14;;;;;;;26.35;16.30;;;;;;;17.01;39.21;101351.78;4935945;29;20116;-76
2021/12/22 06:47:41;;;;;;;23.33;15.73;;;;;;;16.98;39.36;101342.22;4936166;29;20050;-76
2021/12/22 06:50:08;;;;;;;28.17;15.88;;;;;;;16.99;39.44;101338.28;4935802;29;20020;-77
2021/12/22 06:52:33;;;;;;;30.25;16.00;;;;;;;17.01;39.45;101336.03;4935454;29;20027;-77
2021/12/22 06:55:00;;;;;;;26.90;14.35;;;;;;;17.08;39.30;101327.97;4935551;29;20548;-76
2021/12/22 06:57:26;;;;;;;20.75;13.73;;;;;;;16.80;40.03;101322.28;4935802;29;20402;-76
2021/12/22 06:59:51;;;;;;;31.35;15.02;;;;;;;17.06;39.59;101337.75;4935655;29;20031;-76
2021/12/22 07:02:17;;;;;;;25.67;14.80;;;;;;;16.92;40.03;101329.78;4935646;29;20038;-76
2021/12/22 07:04:43;;;;;;;36.60;16.05;;;;;;;17.04;39.94;101342.81;4935786;29;20028;-76
2021/12/22 07:07:08;;;;;;;33.55;15.52;;;;;;;16.91;40.22;101344.72;4935787;29;20055;-76
2021/12/22 07:09:34;;;;;;;34.45;16.23;;;;;;;16.96;40.29;101341.75;4935273;29;20435;-76
2021/12/22 07:12:00;;;;;;;25.45;14.80;;;;;;;16.90;40.23;101343.13;4935511;29;20079;-76
2021/12/22 07:14:25;;;;;;;27.58;14.75;;;;;;;16.99;40.27;101335.53;4935266;29;20031;-77
2021/12/22 07:16:51;;;;;;;37.25;16.65;;;;;;;16.89;40.45;101330.47;4935573;29;20035;-76
2021/12/22 07:19:17;;;;;;;24.25;14.40;;;;;;;16.87;40.58;101316.22;4935925;29;20570;-77
2021/12/22 07:21:44;;;;;;;26.80;14.43;;;;;;;16.96;40.48;101311.38;4940288;29;20023;-77
2021/12/22 07:24:10;;;;;;;31.48;15.20;;;;;;;16.92;40.60;101310.44;4939313;29;20217;-77
2021/12/22 07:26:37;;;;;;;27.50;13.77;;;;;;;16.98;40.54;101294.47;4936666;29;20016;-77
2021/12/22 07:29:03;;;;;;;46.83;16.40;;;;;;;16.85;40.84;101296.41;4947171;29;20112;-77
2021/12/22 07:31:29;;;;;;;34.00;15.52;;;;;;;16.88;41.09;101301.25;4954111;29;20059;-77
2021/12/22 07:33:55;;;;;;;32.90;15.48;;;;;;;16.79;41.42;101293.06;4936930;29;20043;-77
2021/12/22 07:36:20;;;;;;;29.77;14.98;;;;;;;16.88;41.28;101290.22;4954016;29;20031;-77
2021/12/22 07:38:56;;;;;;;27.45;15.63;;;;;;;16.64;41.89;101275.19;4954183;29;20027;-77
2021/12/22 07:41:22;;;;;;;32.65;15.52;;;;;;;16.94;41.07;101266.75;4954376;29;20027;-78
2021/12/22 07:43:48;;;;;;;35.80;16.27;;;;;;;16.92;41.34;101274.56;4953966;29;20098;-77
2021/12/22 07:46:14;;;;;;;33.92;17.27;;;;;;;16.98;41.31;101273.19;4954350;29;20031;-77
2021/12/22 07:48:39;;;;;;;31.33;16.23;;;;;;;16.70;42.30;101283.25;4954331;29;20045;-77
2021/12/22 07:51:05;;;;;;;26.40;15.10;;;;;;;16.66;42.40;101291.38;4953973;29;20474;-77
2021/12/22 07:53:31;;;;;;;35.65;17.25;;;;;;;16.64;42.53;101304.72;4954200;29;20039;-76
2021/12/22 07:55:57;;;;;;;36.28;17.08;;;;;;;16.64;42.60;101302.78;4954112;29;20038;-77
2021/12/22 07:58:24;;;;;;;34.25;15.68;;;;;;;16.74;42.40;101309.03;4954363;29;20034;-76
2021/12/22 08:00:51;;;;;;;36.58;15.80;;;;;;;16.81;42.32;101320.31;4953891;29;20039;-77
2021/12/22 08:03:17;;;;;;;27.35;15.43;;;;;;;16.90;42.14;101315.50;4954242;29;20039;-76
2021/12/22 08:05:43;;;;;;;26.52;15.30;;;;;;;16.91;42.09;101328.16;4957191;28;20043;-77
2021/12/22 08:08:08;;;;;;;33.00;15.75;;;;;;;16.88;42.25;101326.09;4957726;29;20027;-77
2021/12/22 08:10:34;;;;;;;28.88;16.00;;;;;;;16.91;42.22;101326.19;4957496;29;20066;-77
2021/12/22 08:13:00;;;;;;;34.30;17.70;;;;;;;16.94;42.31;101323.94;4957747;29;20044;-78
2021/12/22 08:15:25;;;;;;;33.78;16.45;;;;;;;16.95;42.38;101312.53;4957635;29;20071;-78
2021/12/22 08:17:52;;;;;;;33.85;16.42;;;;;;;16.95;42.51;101314.50;4957624;29;20081;-78
2021/12/22 08:20:19;;;;;;;35.05;16.45;;;;;;;17.06;42.08;101313.69;4951142;29;20039;-77
2021/12/22 08:22:45;;;;;;;35.55;16.80;;;;;;;17.05;42.29;101301.03;4941622;29;20510;-76
2021/12/22 08:25:12;;;;;;;38.90;17.95;;;;;;;16.87;42.61;101297.69;4942398;29;20038;-76
2021/12/22 08:27:38;;;;;;;32.75;15.38;;;;;;;16.84;42.87;101294.78;4941283;29;20028;-76
2021/12/22 08:30:05;;;;;;;38.08;15.57;;;;;;;16.96;42.93;101281.03;4936709;29;20031;-76
2021/12/22 08:32:31;;;;;;;31.65;15.23;;;;;;;16.87;42.89;101283.88;4937047;29;20031;-76
2021/12/22 08:34:57;;;;;;;35.85;16.63;;;;;;;16.87;43.18;101299.66;4938345;29;20034;-76
2021/12/22 08:40:11;;;;;;;33.45;14.75;;;;;;;16.92;42.81;101288.38;4937904;29;20503;-78
2021/12/22 08:42:37;;;;;;;26.38;12.82;;;;;;;16.78;43.14;101288.72;4942955;29;20027;-77
2021/12/22 08:45:04;;;;;;;30.92;13.93;;;;;;;16.80;43.29;101282.84;4939469;29;20023;-77
2021/12/22 08:47:29;;;;;;;31.42;13.60;;;;;;;16.84;43.22;101267.19;4940078;29;20030;-78
2021/12/22 08:49:55;;;;;;;25.77;12.93;;;;;;;16.60;43.90;101262.41;4941680;29;20024;-76
2021/12/22 08:52:20;;;;;;;31.90;14.48;;;;;;;16.81;43.28;101246.63;4941072;29;20026;-76
2021/12/22 08:54:46;;;;;;;29.25;14.65;;;;;;;16.74;43.68;101229.00;4941779;29;20034;-78
2021/12/22 08:57:12;;;;;;;25.40;12.48;;;;;;;16.90;43.24;101216.94;4937413;29;20020;-76
2021/12/22 08:59:38;;;;;;;35.63;12.98;;;;;;;16.90;43.17;101218.91;4937153;29;20108;-76
2021/12/22 09:02:04;;;;;;;38.22;12.77;;;;;;;16.85;43.64;101224.63;4935454;29;20020;-76
2021/12/22 09:04:30;;;;;;;31.80;12.90;;;;;;;16.78;43.97;101210.63;4937032;29;20038;-77
2021/12/22 09:06:56;;;;;;;28.42;11.90;;;;;;;16.79;43.97;101201.19;4937747;29;20102;-76
2021/12/22 09:09:22;;;;;;;32.15;12.30;;;;;;;16.74;44.04;101182.09;4937338;29;20106;-76
2021/12/22 09:11:49;;;;;;;25.02;10.60;;;;;;;16.67;44.08;101171.59;4936437;29;20032;-76
2021/12/22 09:14:15;;;;;;;26.55;10.85;;;;;;;16.82;43.95;101170.16;4919911;29;20479;-75
2021/12/22 09:16:41;;;;;;;28.98;11.18;;;;;;;16.86;43.40;101165.56;4920012;29;20027;-76
2021/12/22 09:19:07;;;;;;;31.05;10.23;;;;;;;16.77;44.20;101154.59;4921218;29;20027;-75
2021/12/22 09:21:35;;;;;;;22.45;10.05;;;;;;;16.65;44.28;101135.28;4920021;29;20020;-77
2021/12/22 09:24:01;;;;;;;31.63;11.25;;;;;;;16.54;44.79;101134.09;4902568;29;20036;-77
2021/12/22 09:26:27;;;;;;;24.88;9.98;;;;;;;16.59;44.75;101120.91;4920775;29;20534;-76
2021/12/22 09:28:54;;;;;;;25.17;10.00;;;;;;;16.43;45.03;101144.78;4920499;29;20106;-76
2021/12/22 09:31:21;;;;;;;18.38;8.30;;;;;;;16.26;45.78;101145.00;4920233;29;20028;-76
2021/12/22 09:33:47;;;;;;;26.23;10.20;;;;;;;16.45;45.55;101138.94;4918351;29;20028;-75
2021/12/22 09:36:14;;;;;;;19.52;9.82;;;;;;;16.50;45.27;101138.72;4917770;29;20062;-76
2021/12/22 09:38:40;;;;;;;26.77;9.18;;;;;;;16.74;44.72;101143.47;4917997;29;20043;-77
2021/12/22 09:41:07;;;;;;;22.67;10.50;;;;;;;16.72;44.81;101120.94;4917563;29;20047;-77
2021/12/22 09:43:34;;;;;;;22.50;8.75;;;;;;;16.84;44.57;101129.19;4918417;29;20735;-77
2021/12/22 09:46:05;;;;;;;22.25;8.40;;;;;;;16.70;45.02;101140.59;4917622;29;20123;-77
2021/12/22 09:48:50;;;;;;;23.98;8.25;;;;;;;16.69;45.08;101125.19;4917291;29;20078;-76
2021/12/22 09:53:50;;;;;;;20.92;8.70;;;;;;;17.01;44.19;101133.69;4919481;29;20497;-77
2021/12/22 09:56:20;;;;;;;22.50;8.27;;;;;;;16.95;44.42;101133.13;4917917;29;20027;-76
2021/12/22 09:58:47;;;;;;;21.40;9.30;;;;;;;16.92;44.52;101131.03;4919837;29;20035;-77
2021/12/22 10:01:14;;;;;;;24.35;9.98;;;;;;;17.06;44.37;101138.97;4919097;29;20026;-76
2021/12/22 10:03:39;;;;;;;20.50;8.40;;;;;;;17.11;43.96;101122.97;4919670;29;20759;-77
2021/12/22 10:06:06;;;;;;;19.55;8.18;;;;;;;17.16;44.00;101114.47;4920041;29;20027;-77
2021/12/22 10:08:32;;;;;;;22.33;9.52;;;;;;;17.09;44.15;101100.44;4933233;29;20054;-76
2021/12/22 10:11:06;;;;;;;19.08;7.25;;;;;;;16.83;44.87;101106.31;4922866;29;20048;-77
2021/12/22 10:13:32;;;;;;;15.77;6.93;;;;;;;16.96;44.74;101106.31;4917049;29;20494;-79
2021/12/22 10:15:59;;;;;;;16.95;7.30;;;;;;;17.16;44.20;101097.88;4922615;29;20035;-79
2021/12/22 10:18:29;;;;;;;24.70;8.30;;;;;;;16.94;44.43;101090.09;4906849;29;20032;-77
2021/12/22 10:21:12;;;;;;;20.48;7.07;;;;;;;16.95;44.72;101069.63;4900819;29;20032;-78
2021/12/22 10:23:41;;;;;;;14.98;6.80;;;;;;;17.00;44.53;101054.75;4901924;29;20143;-79
2021/12/22 10:26:08;;;;;;;21.95;6.90;;;;;;;16.98;44.72;101068.13;4900979;29;20032;-78
2021/12/22 10:28:52;;;;;;;15.05;7.47;;;;;;;16.72;45.59;101065.75;4899984;29;20044;-79
2021/12/22 10:31:21;;;;;;;21.75;8.30;;;;;;;17.00;44.71;101055.56;4901114;29;20091;-79
2021/12/22 10:33:48;;;;;;;21.70;8.18;;;;;;;17.02;44.82;101042.25;4903297;29;20487;-78
2021/12/22 10:36:19;;;;;;;22.27;7.68;;;;;;;17.11;44.70;101050.38;4908402;29;20360;-86
2021/12/22 10:39:00;;;;;;;29.10;10.60;;;;;;;17.04;44.58;101059.25;4901172;29;20024;-79
2021/12/22 10:41:29;;;;;;;21.75;7.82;;;;;;;17.01;44.76;101059.97;4903029;29;20511;-77
2021/12/22 10:43:55;;;;;;;27.48;9.10;;;;;;;17.11;44.55;101065.00;4899071;29;20179;-77
2021/12/22 10:46:25;;;;;;;20.65;7.82;;;;;;;17.28;44.04;101071.38;4898914;29;20035;-77
2021/12/22 10:49:15;;;;;;;20.98;9.63;;;;;;;17.05;44.67;101069.13;4898392;29;20040;-77
2021/12/22 10:51:44;;;;;;;26.95;8.65;;;;;;;17.12;44.50;101068.56;4899493;29;20039;-80
2021/12/22 10:54:12;;;;;;;22.27;7.95;;;;;;;17.28;43.74;101061.13;4901280;29;20122;-80
2021/12/22 10:56:47;;;;;;;19.55;8.18;;;;;;;16.99;44.69;101061.44;4921957;29;20032;-77
2021/12/22 10:59:14;;;;;;;20.67;8.35;;;;;;;17.28;44.12;101052.84;4924293;29;20115;-78
2021/12/22 11:01:49;;;;;;;20.85;9.52;;;;;;;17.03;44.84;101065.94;4925179;29;20031;-77
2021/12/22 11:04:22;;;;;;;22.13;8.40;;;;;;;17.23;43.94;101055.88;4921946;29;20032;-77
2021/12/22 11:06:49;;;;;;;25.98;8.93;;;;;;;17.48;43.64;101062.91;4886034;29;20043;-79
2021/12/22 11:09:17;;;;;;;18.63;9.07;;;;;;;17.44;43.79;101058.44;4899094;29;20073;-78
2021/12/22 11:11:49;;;;;;;18.45;8.57;;;;;;;17.50;43.50;101057.03;4917284;29;20051;-78
2021/12/22 11:14:19;;;;;;;29.92;9.18;;;;;;;17.42;43.70;101044.97;4915166;29;20034;-78
2021/12/22 11:17:00;;;;;;;;;;;;;;;17.12;44.49;101065.78;4918241;29;20380;-77
2021/12/22 11:19:34;;;;;;;18.13;8.15;;;;;;;17.05;44.10;101043.50;4927198;29;19917;-78
2021/12/22 11:22:09;;;;;;;24.05;8.55;;;;;;;17.27;44.11;101051.25;4923969;29;20078;-78
2021/12/22 11:24:48;;;;;;;24.02;9.27;;;;;;;17.39;43.51;101034.63;4934254;29;20466;-78
2021/12/22 11:27:17;;;;;;;22.75;7.63;;;;;;;17.37;43.58;101030.59;4926964;29;20126;-77